sensor_id;sensor_type;location;lat;lon;timestamp;P1;durP1;ratioP1;P2;durP2;ratioP2
65641;SDS011;52340;-6.720;108.544;2023-07-09T00:00:52;34.22;;;22.90;;
65641;SDS011;52340;-6.720;108.544;2023-07-09T00:01:54;28.30;;;19.75;;
65641;SDS011;52340;-6.720;108.544;2023-07-09T00:02:56;29.67;;;19.40;;
65641;SDS011;52340;-6.720;108.544;2023-07-09T00:04:01;32.60;;;19.15;;
65641;SDS011;52340;-6.720;108.544;2023-07-09T00:05:03;31.05;;;19.58;;
65641;SDS011;52340;-6.720;108.544;2023-07-09T00:06:07;31.38;;;19.23;;
65641;SDS011;52340;-6.720;108.544;2023-07-09T00:07:15;35.63;;;20.08;;
65641;SDS011;52340;-6.720;108.544;2023-07-09T00:08:23;31.77;;;21.83;;
65641;SDS011;52340;-6.720;108.544;2023-07-09T00:09:29;36.15;;;22.05;;
65641;SDS011;52340;-6.720;108.544;2023-07-09T00:10:31;37.10;;;23.65;;
65641;SDS011;52340;-6.720;108.544;2023-07-09T00:11:33;38.95;;;22.85;;
65641;SDS011;52340;-6.720;108.544;2023-07-09T00:12:36;38.95;;;24.73;;
65641;SDS011;52340;-6.720;108.544;2023-07-09T00:13:38;36.13;;;22.98;;
65641;SDS011;52340;-6.720;108.544;2023-07-09T00:14:42;38.38;;;22.75;;
65641;SDS011;52340;-6.720;108.544;2023-07-09T00:15:46;38.15;;;23.50;;
65641;SDS011;52340;-6.720;108.544;2023-07-09T00:16:48;37.80;;;22.67;;
65641;SDS011;52340;-6.720;108.544;2023-07-09T00:17:50;36.15;;;21.80;;
65641;SDS011;52340;-6.720;108.544;2023-07-09T00:18:52;36.58;;;21.77;;
65641;SDS011;52340;-6.720;108.544;2023-07-09T00:19:53;31.23;;;20.65;;
65641;SDS011;52340;-6.720;108.544;2023-07-09T00:20:55;31.33;;;20.52;;
65641;SDS011;52340;-6.720;108.544;2023-07-09T00:21:59;31.52;;;20.50;;
65641;SDS011;52340;-6.720;108.544;2023-07-09T00:23:00;31.60;;;20.77;;
65641;SDS011;52340;-6.720;108.544;2023-07-09T00:24:02;30.60;;;19.85;;
65641;SDS011;52340;-6.720;108.544;2023-07-09T00:25:05;33.22;;;20.13;;
65641;SDS011;52340;-6.720;108.544;2023-07-09T00:26:10;30.30;;;19.92;;
65641;SDS011;52340;-6.720;108.544;2023-07-09T00:27:13;31.25;;;19.45;;
65641;SDS011;52340;-6.720;108.544;2023-07-09T00:28:17;33.38;;;21.98;;
65641;SDS011;52340;-6.720;108.544;2023-07-09T00:29:19;33.35;;;21.20;;
65641;SDS011;52340;-6.720;108.544;2023-07-09T00:30:22;33.13;;;22.00;;
65641;SDS011;52340;-6.720;108.544;2023-07-09T00:31:24;35.83;;;22.67;;
65641;SDS011;52340;-6.720;108.544;2023-07-09T00:32:26;33.63;;;23.67;;
65641;SDS011;52340;-6.720;108.544;2023-07-09T00:33:27;33.00;;;22.88;;
65641;SDS011;52340;-6.720;108.544;2023-07-09T00:34:29;33.78;;;22.58;;
65641;SDS011;52340;-6.720;108.544;2023-07-09T00:35:31;34.80;;;23.45;;
65641;SDS011;52340;-6.720;108.544;2023-07-09T00:36:32;37.15;;;23.95;;
65641;SDS011;52340;-6.720;108.544;2023-07-09T00:37:34;37.47;;;24.73;;
65641;SDS011;52340;-6.720;108.544;2023-07-09T00:38:36;38.97;;;24.42;;
65641;SDS011;52340;-6.720;108.544;2023-07-09T00:39:37;36.75;;;24.65;;
65641;SDS011;52340;-6.720;108.544;2023-07-09T00:40:43;34.80;;;24.23;;
65641;SDS011;52340;-6.720;108.544;2023-07-09T00:41:48;34.00;;;24.47;;
65641;SDS011;52340;-6.720;108.544;2023-07-09T00:42:51;37.83;;;24.02;;
65641;SDS011;52340;-6.720;108.544;2023-07-09T00:43:55;39.08;;;24.88;;
65641;SDS011;52340;-6.720;108.544;2023-07-09T00:44:57;38.50;;;26.33;;
65641;SDS011;52340;-6.720;108.544;2023-07-09T00:46:14;41.53;;;25.65;;
65641;SDS011;52340;-6.720;108.544;2023-07-09T00:47:33;37.53;;;25.33;;
65641;SDS011;52340;-6.720;108.544;2023-07-09T00:48:42;37.33;;;24.80;;
65641;SDS011;52340;-6.720;108.544;2023-07-09T00:49:44;39.35;;;26.13;;
65641;SDS011;52340;-6.720;108.544;2023-07-09T00:50:46;42.97;;;27.42;;
65641;SDS011;52340;-6.720;108.544;2023-07-09T00:51:50;37.83;;;26.17;;
65641;SDS011;52340;-6.720;108.544;2023-07-09T00:52:52;42.90;;;27.38;;
65641;SDS011;52340;-6.720;108.544;2023-07-09T00:54:01;43.70;;;27.73;;
65641;SDS011;52340;-6.720;108.544;2023-07-09T00:55:08;42.25;;;26.45;;
65641;SDS011;52340;-6.720;108.544;2023-07-09T00:56:15;42.83;;;26.38;;
65641;SDS011;52340;-6.720;108.544;2023-07-09T00:57:19;38.50;;;26.20;;
65641;SDS011;52340;-6.720;108.544;2023-07-09T00:58:25;40.30;;;26.17;;
65641;SDS011;52340;-6.720;108.544;2023-07-09T00:59:29;43.72;;;26.92;;
65641;SDS011;52340;-6.720;108.544;2023-07-09T01:00:33;42.95;;;25.73;;
65641;SDS011;52340;-6.720;108.544;2023-07-09T01:01:36;56.88;;;26.83;;
65641;SDS011;52340;-6.720;108.544;2023-07-09T01:02:38;49.38;;;25.95;;
65641;SDS011;52340;-6.720;108.544;2023-07-09T01:03:42;44.38;;;25.23;;
65641;SDS011;52340;-6.720;108.544;2023-07-09T01:04:45;43.42;;;24.67;;
65641;SDS011;52340;-6.720;108.544;2023-07-09T01:05:46;65.65;;;25.33;;
65641;SDS011;52340;-6.720;108.544;2023-07-09T01:06:51;48.42;;;24.33;;
65641;SDS011;52340;-6.720;108.544;2023-07-09T01:07:54;54.13;;;23.92;;
65641;SDS011;52340;-6.720;108.544;2023-07-09T01:08:55;44.42;;;23.70;;
65641;SDS011;52340;-6.720;108.544;2023-07-09T01:10:00;36.75;;;23.63;;
65641;SDS011;52340;-6.720;108.544;2023-07-09T01:11:02;45.92;;;23.58;;
65641;SDS011;52340;-6.720;108.544;2023-07-09T01:12:04;44.72;;;22.38;;
65641;SDS011;52340;-6.720;108.544;2023-07-09T01:13:07;46.28;;;22.95;;
65641;SDS011;52340;-6.720;108.544;2023-07-09T01:14:10;54.95;;;23.27;;
65641;SDS011;52340;-6.720;108.544;2023-07-09T01:15:15;63.63;;;23.25;;
65641;SDS011;52340;-6.720;108.544;2023-07-09T01:16:17;49.83;;;22.55;;
65641;SDS011;52340;-6.720;108.544;2023-07-09T01:17:18;46.67;;;21.23;;
65641;SDS011;52340;-6.720;108.544;2023-07-09T01:18:20;54.65;;;22.45;;
65641;SDS011;52340;-6.720;108.544;2023-07-09T01:19:22;46.83;;;22.73;;
65641;SDS011;52340;-6.720;108.544;2023-07-09T01:20:26;39.28;;;20.63;;
65641;SDS011;52340;-6.720;108.544;2023-07-09T01:21:29;38.60;;;20.50;;
65641;SDS011;52340;-6.720;108.544;2023-07-09T01:22:31;39.08;;;19.70;;
65641;SDS011;52340;-6.720;108.544;2023-07-09T01:23:33;33.25;;;18.65;;
65641;SDS011;52340;-6.720;108.544;2023-07-09T01:24:51;32.22;;;17.92;;
65641;SDS011;52340;-6.720;108.544;2023-07-09T01:25:54;32.17;;;17.95;;
65641;SDS011;52340;-6.720;108.544;2023-07-09T01:26:56;32.38;;;17.35;;
65641;SDS011;52340;-6.720;108.544;2023-07-09T01:27:57;28.98;;;17.25;;
65641;SDS011;52340;-6.720;108.544;2023-07-09T01:28:59;30.52;;;16.50;;
65641;SDS011;52340;-6.720;108.544;2023-07-09T01:30:04;27.33;;;16.17;;
65641;SDS011;52340;-6.720;108.544;2023-07-09T01:31:07;25.13;;;16.60;;
65641;SDS011;52340;-6.720;108.544;2023-07-09T01:32:09;27.33;;;15.85;;
65641;SDS011;52340;-6.720;108.544;2023-07-09T01:33:10;24.80;;;14.98;;
65641;SDS011;52340;-6.720;108.544;2023-07-09T01:34:12;23.20;;;15.48;;
65641;SDS011;52340;-6.720;108.544;2023-07-09T01:35:14;29.52;;;16.08;;
65641;SDS011;52340;-6.720;108.544;2023-07-09T01:36:18;29.02;;;15.60;;
65641;SDS011;52340;-6.720;108.544;2023-07-09T01:37:25;24.40;;;15.02;;
65641;SDS011;52340;-6.720;108.544;2023-07-09T01:38:27;29.77;;;16.52;;
65641;SDS011;52340;-6.720;108.544;2023-07-09T01:39:29;26.65;;;15.98;;
65641;SDS011;52340;-6.720;108.544;2023-07-09T01:40:31;28.33;;;15.40;;
65641;SDS011;52340;-6.720;108.544;2023-07-09T01:41:36;26.10;;;15.30;;
65641;SDS011;52340;-6.720;108.544;2023-07-09T01:42:37;27.23;;;15.10;;
65641;SDS011;52340;-6.720;108.544;2023-07-09T01:43:39;26.00;;;15.82;;
65641;SDS011;52340;-6.720;108.544;2023-07-09T01:44:41;28.88;;;15.68;;
65641;SDS011;52340;-6.720;108.544;2023-07-09T01:45:43;26.10;;;14.77;;
65641;SDS011;52340;-6.720;108.544;2023-07-09T01:46:44;28.00;;;14.80;;
65641;SDS011;52340;-6.720;108.544;2023-07-09T01:47:46;24.58;;;14.07;;
65641;SDS011;52340;-6.720;108.544;2023-07-09T01:48:48;23.45;;;14.05;;
65641;SDS011;52340;-6.720;108.544;2023-07-09T01:49:49;27.55;;;14.63;;
65641;SDS011;52340;-6.720;108.544;2023-07-09T01:50:51;23.25;;;12.65;;
65641;SDS011;52340;-6.720;108.544;2023-07-09T01:51:53;23.20;;;13.38;;
65641;SDS011;52340;-6.720;108.544;2023-07-09T01:52:57;25.92;;;14.57;;
65641;SDS011;52340;-6.720;108.544;2023-07-09T01:53:59;23.48;;;13.15;;
65641;SDS011;52340;-6.720;108.544;2023-07-09T01:55:00;24.70;;;13.48;;
65641;SDS011;52340;-6.720;108.544;2023-07-09T01:56:02;27.33;;;14.50;;
65641;SDS011;52340;-6.720;108.544;2023-07-09T01:57:14;28.70;;;14.45;;
65641;SDS011;52340;-6.720;108.544;2023-07-09T01:58:17;27.40;;;14.43;;
65641;SDS011;52340;-6.720;108.544;2023-07-09T01:59:19;25.75;;;14.10;;
65641;SDS011;52340;-6.720;108.544;2023-07-09T02:00:20;26.55;;;14.23;;
65641;SDS011;52340;-6.720;108.544;2023-07-09T02:01:22;27.17;;;14.80;;
65641;SDS011;52340;-6.720;108.544;2023-07-09T02:02:24;25.63;;;14.32;;
65641;SDS011;52340;-6.720;108.544;2023-07-09T02:03:25;27.65;;;14.38;;
65641;SDS011;52340;-6.720;108.544;2023-07-09T02:04:27;25.08;;;14.23;;
65641;SDS011;52340;-6.720;108.544;2023-07-09T02:05:30;25.38;;;14.45;;
65641;SDS011;52340;-6.720;108.544;2023-07-09T02:06:31;29.33;;;14.32;;
65641;SDS011;52340;-6.720;108.544;2023-07-09T02:07:33;26.98;;;14.70;;
65641;SDS011;52340;-6.720;108.544;2023-07-09T02:08:37;28.77;;;14.30;;
65641;SDS011;52340;-6.720;108.544;2023-07-09T02:09:39;26.08;;;14.10;;
65641;SDS011;52340;-6.720;108.544;2023-07-09T02:10:42;24.08;;;13.65;;
65641;SDS011;52340;-6.720;108.544;2023-07-09T02:11:44;25.50;;;13.95;;
65641;SDS011;52340;-6.720;108.544;2023-07-09T02:12:46;27.55;;;13.63;;
65641;SDS011;52340;-6.720;108.544;2023-07-09T02:13:48;26.52;;;13.68;;
65641;SDS011;52340;-6.720;108.544;2023-07-09T02:14:50;25.92;;;13.55;;
65641;SDS011;52340;-6.720;108.544;2023-07-09T02:15:51;25.27;;;14.38;;
65641;SDS011;52340;-6.720;108.544;2023-07-09T02:16:53;26.80;;;14.40;;
65641;SDS011;52340;-6.720;108.544;2023-07-09T02:17:55;28.30;;;15.95;;
65641;SDS011;52340;-6.720;108.544;2023-07-09T02:18:56;27.08;;;15.43;;
65641;SDS011;52340;-6.720;108.544;2023-07-09T02:19:58;27.60;;;15.85;;
65641;SDS011;52340;-6.720;108.544;2023-07-09T02:21:00;29.73;;;16.08;;
65641;SDS011;52340;-6.720;108.544;2023-07-09T02:22:01;29.98;;;16.27;;
65641;SDS011;52340;-6.720;108.544;2023-07-09T02:23:03;26.73;;;16.83;;
65641;SDS011;52340;-6.720;108.544;2023-07-09T02:24:07;28.25;;;16.10;;
65641;SDS011;52340;-6.720;108.544;2023-07-09T02:25:09;28.00;;;15.82;;
65641;SDS011;52340;-6.720;108.544;2023-07-09T02:26:11;23.73;;;14.55;;
65641;SDS011;52340;-6.720;108.544;2023-07-09T02:27:17;29.58;;;14.85;;
65641;SDS011;52340;-6.720;108.544;2023-07-09T02:28:19;28.05;;;15.05;;
65641;SDS011;52340;-6.720;108.544;2023-07-09T02:29:21;24.60;;;14.65;;
65641;SDS011;52340;-6.720;108.544;2023-07-09T02:30:23;23.42;;;13.88;;
65641;SDS011;52340;-6.720;108.544;2023-07-09T02:31:25;22.88;;;13.30;;
65641;SDS011;52340;-6.720;108.544;2023-07-09T02:32:26;20.15;;;12.18;;
65641;SDS011;52340;-6.720;108.544;2023-07-09T02:33:28;19.92;;;12.18;;
65641;SDS011;52340;-6.720;108.544;2023-07-09T02:34:30;21.48;;;12.68;;
65641;SDS011;52340;-6.720;108.544;2023-07-09T02:35:32;19.65;;;11.63;;
65641;SDS011;52340;-6.720;108.544;2023-07-09T02:36:34;19.20;;;11.25;;
65641;SDS011;52340;-6.720;108.544;2023-07-09T02:37:36;20.95;;;11.27;;
65641;SDS011;52340;-6.720;108.544;2023-07-09T02:38:38;18.38;;;11.40;;
65641;SDS011;52340;-6.720;108.544;2023-07-09T02:39:41;17.15;;;10.57;;
65641;SDS011;52340;-6.720;108.544;2023-07-09T02:40:43;20.02;;;11.43;;
65641;SDS011;52340;-6.720;108.544;2023-07-09T02:41:44;18.30;;;11.30;;
65641;SDS011;52340;-6.720;108.544;2023-07-09T02:42:46;22.15;;;11.77;;
65641;SDS011;52340;-6.720;108.544;2023-07-09T02:43:48;20.15;;;10.63;;
65641;SDS011;52340;-6.720;108.544;2023-07-09T02:44:50;17.73;;;9.82;;
65641;SDS011;52340;-6.720;108.544;2023-07-09T02:45:51;19.15;;;10.23;;
65641;SDS011;52340;-6.720;108.544;2023-07-09T02:46:53;15.82;;;10.48;;
65641;SDS011;52340;-6.720;108.544;2023-07-09T02:47:55;17.80;;;11.10;;
65641;SDS011;52340;-6.720;108.544;2023-07-09T02:48:57;20.45;;;12.05;;
65641;SDS011;52340;-6.720;108.544;2023-07-09T02:50:01;19.38;;;11.75;;
65641;SDS011;52340;-6.720;108.544;2023-07-09T02:51:05;17.83;;;11.38;;
65641;SDS011;52340;-6.720;108.544;2023-07-09T02:52:09;20.08;;;12.88;;
65641;SDS011;52340;-6.720;108.544;2023-07-09T02:53:11;17.38;;;10.55;;
65641;SDS011;52340;-6.720;108.544;2023-07-09T02:54:13;19.90;;;11.35;;
65641;SDS011;52340;-6.720;108.544;2023-07-09T02:55:19;25.35;;;10.95;;
65641;SDS011;52340;-6.720;108.544;2023-07-09T02:56:21;19.23;;;11.05;;
65641;SDS011;52340;-6.720;108.544;2023-07-09T02:57:23;19.08;;;10.25;;
65641;SDS011;52340;-6.720;108.544;2023-07-09T02:58:24;18.90;;;11.43;;
65641;SDS011;52340;-6.720;108.544;2023-07-09T02:59:26;17.17;;;11.98;;
65641;SDS011;52340;-6.720;108.544;2023-07-09T03:00:28;22.42;;;14.52;;
65641;SDS011;52340;-6.720;108.544;2023-07-09T03:01:30;19.80;;;10.55;;
65641;SDS011;52340;-6.720;108.544;2023-07-09T03:02:32;22.23;;;13.60;;
65641;SDS011;52340;-6.720;108.544;2023-07-09T03:03:34;19.67;;;13.77;;
65641;SDS011;52340;-6.720;108.544;2023-07-09T03:04:36;21.73;;;14.63;;
65641;SDS011;52340;-6.720;108.544;2023-07-09T03:05:38;18.38;;;14.00;;
65641;SDS011;52340;-6.720;108.544;2023-07-09T03:06:39;17.83;;;13.23;;
65641;SDS011;52340;-6.720;108.544;2023-07-09T03:07:41;19.45;;;14.20;;
65641;SDS011;52340;-6.720;108.544;2023-07-09T03:08:43;20.63;;;13.75;;
65641;SDS011;52340;-6.720;108.544;2023-07-09T03:09:46;20.15;;;13.75;;
65641;SDS011;52340;-6.720;108.544;2023-07-09T03:10:50;21.23;;;13.70;;
65641;SDS011;52340;-6.720;108.544;2023-07-09T03:11:51;19.65;;;13.77;;
65641;SDS011;52340;-6.720;108.544;2023-07-09T03:12:53;18.65;;;13.23;;
65641;SDS011;52340;-6.720;108.544;2023-07-09T03:13:55;19.58;;;13.27;;
65641;SDS011;52340;-6.720;108.544;2023-07-09T03:14:57;20.13;;;13.48;;
65641;SDS011;52340;-6.720;108.544;2023-07-09T03:15:58;17.83;;;12.82;;
65641;SDS011;52340;-6.720;108.544;2023-07-09T03:17:00;19.05;;;12.90;;
65641;SDS011;52340;-6.720;108.544;2023-07-09T03:18:02;20.67;;;12.77;;
65641;SDS011;52340;-6.720;108.544;2023-07-09T03:19:06;20.10;;;11.82;;
65641;SDS011;52340;-6.720;108.544;2023-07-09T03:20:09;16.40;;;11.52;;
65641;SDS011;52340;-6.720;108.544;2023-07-09T03:21:11;17.52;;;11.82;;
65641;SDS011;52340;-6.720;108.544;2023-07-09T03:22:13;17.60;;;11.82;;
65641;SDS011;52340;-6.720;108.544;2023-07-09T03:23:15;16.52;;;10.73;;
65641;SDS011;52340;-6.720;108.544;2023-07-09T03:24:16;17.20;;;11.07;;
65641;SDS011;52340;-6.720;108.544;2023-07-09T03:25:18;14.45;;;10.02;;
65641;SDS011;52340;-6.720;108.544;2023-07-09T03:26:21;15.52;;;10.27;;
65641;SDS011;52340;-6.720;108.544;2023-07-09T03:27:23;15.07;;;9.77;;
65641;SDS011;52340;-6.720;108.544;2023-07-09T03:28:27;13.57;;;9.38;;
65641;SDS011;52340;-6.720;108.544;2023-07-09T03:29:30;12.63;;;8.48;;
65641;SDS011;52340;-6.720;108.544;2023-07-09T03:30:32;12.77;;;7.93;;
65641;SDS011;52340;-6.720;108.544;2023-07-09T03:31:33;13.48;;;8.20;;
65641;SDS011;52340;-6.720;108.544;2023-07-09T03:32:35;14.15;;;8.07;;
65641;SDS011;52340;-6.720;108.544;2023-07-09T03:33:37;15.18;;;8.48;;
65641;SDS011;52340;-6.720;108.544;2023-07-09T03:34:38;12.48;;;7.80;;
65641;SDS011;52340;-6.720;108.544;2023-07-09T03:35:43;12.27;;;8.05;;
65641;SDS011;52340;-6.720;108.544;2023-07-09T03:36:45;12.68;;;7.88;;
65641;SDS011;52340;-6.720;108.544;2023-07-09T03:37:46;13.32;;;7.95;;
65641;SDS011;52340;-6.720;108.544;2023-07-09T03:38:51;12.35;;;8.07;;
65641;SDS011;52340;-6.720;108.544;2023-07-09T03:39:53;12.40;;;9.07;;
65641;SDS011;52340;-6.720;108.544;2023-07-09T03:40:57;13.88;;;8.10;;
65641;SDS011;52340;-6.720;108.544;2023-07-09T03:42:04;12.52;;;8.60;;
65641;SDS011;52340;-6.720;108.544;2023-07-09T03:43:06;13.15;;;8.60;;
65641;SDS011;52340;-6.720;108.544;2023-07-09T03:44:10;19.48;;;9.55;;
65641;SDS011;52340;-6.720;108.544;2023-07-09T03:45:11;18.77;;;9.85;;
65641;SDS011;52340;-6.720;108.544;2023-07-09T03:46:13;17.88;;;9.98;;
65641;SDS011;52340;-6.720;108.544;2023-07-09T03:47:15;15.57;;;9.43;;
65641;SDS011;52340;-6.720;108.544;2023-07-09T03:48:19;21.88;;;10.23;;
65641;SDS011;52340;-6.720;108.544;2023-07-09T03:49:21;13.95;;;9.20;;
65641;SDS011;52340;-6.720;108.544;2023-07-09T03:50:23;15.10;;;8.20;;
65641;SDS011;52340;-6.720;108.544;2023-07-09T03:51:24;12.45;;;7.70;;
65641;SDS011;52340;-6.720;108.544;2023-07-09T03:52:26;13.00;;;7.78;;
65641;SDS011;52340;-6.720;108.544;2023-07-09T03:53:28;12.57;;;7.60;;
65641;SDS011;52340;-6.720;108.544;2023-07-09T03:54:29;12.55;;;7.70;;
65641;SDS011;52340;-6.720;108.544;2023-07-09T03:55:33;14.35;;;7.97;;
65641;SDS011;52340;-6.720;108.544;2023-07-09T03:56:35;15.02;;;7.45;;
65641;SDS011;52340;-6.720;108.544;2023-07-09T03:57:38;12.43;;;7.68;;
65641;SDS011;52340;-6.720;108.544;2023-07-09T03:58:40;12.98;;;7.50;;
65641;SDS011;52340;-6.720;108.544;2023-07-09T03:59:42;12.45;;;7.55;;
65641;SDS011;52340;-6.720;108.544;2023-07-09T04:00:44;11.60;;;7.25;;
65641;SDS011;52340;-6.720;108.544;2023-07-09T04:01:45;13.63;;;7.80;;
65641;SDS011;52340;-6.720;108.544;2023-07-09T04:02:47;14.45;;;8.43;;
65641;SDS011;52340;-6.720;108.544;2023-07-09T04:03:49;17.23;;;7.97;;
65641;SDS011;52340;-6.720;108.544;2023-07-09T04:04:51;13.40;;;7.75;;
65641;SDS011;52340;-6.720;108.544;2023-07-09T04:05:53;26.60;;;8.73;;
65641;SDS011;52340;-6.720;108.544;2023-07-09T04:06:54;13.65;;;8.15;;
65641;SDS011;52340;-6.720;108.544;2023-07-09T04:07:56;14.52;;;8.43;;
65641;SDS011;52340;-6.720;108.544;2023-07-09T04:08:58;13.30;;;7.80;;
65641;SDS011;52340;-6.720;108.544;2023-07-09T04:09:59;14.43;;;8.05;;
65641;SDS011;52340;-6.720;108.544;2023-07-09T04:11:03;13.90;;;8.20;;
65641;SDS011;52340;-6.720;108.544;2023-07-09T04:12:05;11.52;;;7.82;;
65641;SDS011;52340;-6.720;108.544;2023-07-09T04:13:12;11.95;;;8.02;;
65641;SDS011;52340;-6.720;108.544;2023-07-09T04:14:14;12.30;;;8.60;;
65641;SDS011;52340;-6.720;108.544;2023-07-09T04:15:15;12.63;;;8.15;;
65641;SDS011;52340;-6.720;108.544;2023-07-09T04:16:17;14.43;;;8.57;;
65641;SDS011;52340;-6.720;108.544;2023-07-09T04:17:19;12.23;;;7.95;;
65641;SDS011;52340;-6.720;108.544;2023-07-09T04:18:21;14.00;;;8.02;;
65641;SDS011;52340;-6.720;108.544;2023-07-09T04:19:22;12.70;;;7.85;;
65641;SDS011;52340;-6.720;108.544;2023-07-09T04:20:24;12.77;;;8.50;;
65641;SDS011;52340;-6.720;108.544;2023-07-09T04:21:26;16.60;;;9.32;;
65641;SDS011;52340;-6.720;108.544;2023-07-09T04:22:27;14.45;;;8.30;;
65641;SDS011;52340;-6.720;108.544;2023-07-09T04:23:29;13.00;;;8.80;;
65641;SDS011;52340;-6.720;108.544;2023-07-09T04:24:31;13.10;;;8.90;;
65641;SDS011;52340;-6.720;108.544;2023-07-09T04:25:33;13.63;;;8.90;;
65641;SDS011;52340;-6.720;108.544;2023-07-09T04:26:35;14.43;;;8.90;;
65641;SDS011;52340;-6.720;108.544;2023-07-09T04:27:36;17.10;;;9.23;;
65641;SDS011;52340;-6.720;108.544;2023-07-09T04:28:40;15.00;;;9.50;;
65641;SDS011;52340;-6.720;108.544;2023-07-09T04:29:42;13.23;;;9.07;;
65641;SDS011;52340;-6.720;108.544;2023-07-09T04:30:47;13.30;;;9.52;;
65641;SDS011;52340;-6.720;108.544;2023-07-09T04:31:49;13.30;;;9.00;;
65641;SDS011;52340;-6.720;108.544;2023-07-09T04:32:51;13.38;;;8.75;;
65641;SDS011;52340;-6.720;108.544;2023-07-09T04:33:52;13.60;;;9.35;;
65641;SDS011;52340;-6.720;108.544;2023-07-09T04:34:54;15.77;;;9.15;;
65641;SDS011;52340;-6.720;108.544;2023-07-09T04:35:56;13.43;;;8.95;;
65641;SDS011;52340;-6.720;108.544;2023-07-09T04:36:57;14.02;;;9.85;;
65641;SDS011;52340;-6.720;108.544;2023-07-09T04:37:59;15.45;;;9.50;;
65641;SDS011;52340;-6.720;108.544;2023-07-09T04:39:01;15.35;;;9.95;;
65641;SDS011;52340;-6.720;108.544;2023-07-09T04:40:03;17.48;;;10.18;;
65641;SDS011;52340;-6.720;108.544;2023-07-09T04:41:08;16.00;;;10.10;;
65641;SDS011;52340;-6.720;108.544;2023-07-09T04:42:10;16.88;;;10.45;;
65641;SDS011;52340;-6.720;108.544;2023-07-09T04:43:14;15.38;;;10.75;;
65641;SDS011;52340;-6.720;108.544;2023-07-09T04:44:17;15.35;;;10.32;;
65641;SDS011;52340;-6.720;108.544;2023-07-09T04:45:19;17.30;;;11.13;;
65641;SDS011;52340;-6.720;108.544;2023-07-09T04:46:21;15.38;;;10.85;;
65641;SDS011;52340;-6.720;108.544;2023-07-09T04:47:22;17.45;;;11.15;;
65641;SDS011;52340;-6.720;108.544;2023-07-09T04:48:24;14.27;;;10.68;;
65641;SDS011;52340;-6.720;108.544;2023-07-09T04:49:26;15.00;;;10.77;;
65641;SDS011;52340;-6.720;108.544;2023-07-09T04:50:30;17.00;;;11.27;;
65641;SDS011;52340;-6.720;108.544;2023-07-09T04:51:32;16.85;;;11.18;;
65641;SDS011;52340;-6.720;108.544;2023-07-09T04:52:33;18.48;;;11.02;;
65641;SDS011;52340;-6.720;108.544;2023-07-09T04:53:35;17.13;;;10.77;;
65641;SDS011;52340;-6.720;108.544;2023-07-09T04:54:40;16.52;;;11.27;;
65641;SDS011;52340;-6.720;108.544;2023-07-09T04:55:42;18.48;;;11.55;;
65641;SDS011;52340;-6.720;108.544;2023-07-09T04:56:46;17.50;;;10.90;;
65641;SDS011;52340;-6.720;108.544;2023-07-09T04:57:50;18.35;;;10.32;;
65641;SDS011;52340;-6.720;108.544;2023-07-09T04:58:52;18.42;;;11.15;;
65641;SDS011;52340;-6.720;108.544;2023-07-09T04:59:55;17.48;;;11.00;;
65641;SDS011;52340;-6.720;108.544;2023-07-09T05:00:57;18.27;;;11.18;;
65641;SDS011;52340;-6.720;108.544;2023-07-09T05:01:59;18.33;;;11.57;;
65641;SDS011;52340;-6.720;108.544;2023-07-09T05:03:03;19.20;;;11.00;;
65641;SDS011;52340;-6.720;108.544;2023-07-09T05:04:05;16.25;;;10.85;;
65641;SDS011;52340;-6.720;108.544;2023-07-09T05:05:09;17.13;;;10.88;;
65641;SDS011;52340;-6.720;108.544;2023-07-09T05:06:10;14.75;;;10.32;;
65641;SDS011;52340;-6.720;108.544;2023-07-09T05:07:12;15.30;;;10.20;;
65641;SDS011;52340;-6.720;108.544;2023-07-09T05:08:14;18.58;;;11.23;;
65641;SDS011;52340;-6.720;108.544;2023-07-09T05:09:16;17.48;;;11.40;;
65641;SDS011;52340;-6.720;108.544;2023-07-09T05:10:17;17.90;;;11.10;;
65641;SDS011;52340;-6.720;108.544;2023-07-09T05:11:22;16.73;;;11.70;;
65641;SDS011;52340;-6.720;108.544;2023-07-09T05:12:25;17.45;;;11.85;;
65641;SDS011;52340;-6.720;108.544;2023-07-09T05:13:27;15.10;;;10.70;;
65641;SDS011;52340;-6.720;108.544;2023-07-09T05:14:31;17.90;;;11.45;;
65641;SDS011;52340;-6.720;108.544;2023-07-09T05:15:34;18.23;;;11.38;;
65641;SDS011;52340;-6.720;108.544;2023-07-09T05:16:40;16.75;;;10.98;;
65641;SDS011;52340;-6.720;108.544;2023-07-09T05:17:45;18.60;;;11.27;;
65641;SDS011;52340;-6.720;108.544;2023-07-09T05:18:47;15.15;;;11.00;;
65641;SDS011;52340;-6.720;108.544;2023-07-09T05:19:49;17.88;;;10.68;;
65641;SDS011;52340;-6.720;108.544;2023-07-09T05:20:51;19.23;;;10.60;;
65641;SDS011;52340;-6.720;108.544;2023-07-09T05:21:53;17.85;;;11.05;;
65641;SDS011;52340;-6.720;108.544;2023-07-09T05:22:56;14.90;;;10.43;;
65641;SDS011;52340;-6.720;108.544;2023-07-09T05:23:58;17.20;;;10.38;;
65641;SDS011;52340;-6.720;108.544;2023-07-09T05:24:59;16.27;;;10.75;;
65641;SDS011;52340;-6.720;108.544;2023-07-09T05:26:01;16.90;;;10.52;;
65641;SDS011;52340;-6.720;108.544;2023-07-09T05:27:04;16.52;;;10.40;;
65641;SDS011;52340;-6.720;108.544;2023-07-09T05:28:06;15.50;;;9.95;;
65641;SDS011;52340;-6.720;108.544;2023-07-09T05:29:08;16.90;;;10.50;;
65641;SDS011;52340;-6.720;108.544;2023-07-09T05:30:09;16.73;;;10.40;;
65641;SDS011;52340;-6.720;108.544;2023-07-09T05:31:13;15.07;;;10.52;;
65641;SDS011;52340;-6.720;108.544;2023-07-09T05:32:16;16.00;;;11.18;;
65641;SDS011;52340;-6.720;108.544;2023-07-09T05:33:18;15.63;;;10.45;;
65641;SDS011;52340;-6.720;108.544;2023-07-09T05:34:20;15.82;;;10.25;;
65641;SDS011;52340;-6.720;108.544;2023-07-09T05:35:21;14.95;;;10.80;;
65641;SDS011;52340;-6.720;108.544;2023-07-09T05:36:23;15.05;;;10.43;;
65641;SDS011;52340;-6.720;108.544;2023-07-09T05:37:26;12.93;;;9.63;;
65641;SDS011;52340;-6.720;108.544;2023-07-09T05:38:27;13.25;;;9.63;;
65641;SDS011;52340;-6.720;108.544;2023-07-09T05:39:29;15.70;;;10.40;;
65641;SDS011;52340;-6.720;108.544;2023-07-09T05:40:33;16.25;;;9.93;;
65641;SDS011;52340;-6.720;108.544;2023-07-09T05:41:35;13.98;;;9.75;;
65641;SDS011;52340;-6.720;108.544;2023-07-09T05:42:37;16.65;;;10.15;;
65641;SDS011;52340;-6.720;108.544;2023-07-09T05:43:39;14.75;;;10.55;;
65641;SDS011;52340;-6.720;108.544;2023-07-09T05:44:40;13.75;;;10.00;;
65641;SDS011;52340;-6.720;108.544;2023-07-09T05:45:42;16.10;;;9.55;;
65641;SDS011;52340;-6.720;108.544;2023-07-09T05:46:46;14.70;;;9.15;;
65641;SDS011;52340;-6.720;108.544;2023-07-09T05:47:47;13.23;;;9.25;;
65641;SDS011;52340;-6.720;108.544;2023-07-09T05:48:49;14.52;;;10.15;;
65641;SDS011;52340;-6.720;108.544;2023-07-09T05:49:51;14.85;;;9.50;;
65641;SDS011;52340;-6.720;108.544;2023-07-09T05:50:53;12.68;;;9.43;;
65641;SDS011;52340;-6.720;108.544;2023-07-09T05:51:55;13.30;;;9.43;;
65641;SDS011;52340;-6.720;108.544;2023-07-09T05:52:57;13.52;;;9.45;;
65641;SDS011;52340;-6.720;108.544;2023-07-09T05:53:59;13.70;;;9.15;;
65641;SDS011;52340;-6.720;108.544;2023-07-09T05:55:00;17.27;;;9.10;;
65641;SDS011;52340;-6.720;108.544;2023-07-09T05:56:08;13.88;;;9.23;;
65641;SDS011;52340;-6.720;108.544;2023-07-09T05:57:10;13.93;;;9.20;;